Time;durP1;ratioP1;P1;durP2;ratioP2;P2;SDS_P1;SDS_P2;PMS_P1;PMS_P2;Temp;Humidity;BMP_temperature;BMP_pressure;BME280_temperature;BME280_humidity;BME280_pressure;Samples;Min_cycle;Max_cycle;Signal;HPM_P1;HPM_P2
2024/01/24 00:00:48;;;;;;;2.88;1.10;;;8.60;99.90;;;9.18;100.00;100213.13;5014082;28;20042;-76
2024/01/24 00:03:14;;;;;;;1.65;1.00;;;8.70;99.90;;;9.17;100.00;100234.09;5019180;28;20232;-76
2024/01/24 00:05:40;;;;;;;3.08;1.00;;;8.70;99.90;;;9.29;100.00;100228.78;5023249;28;20520;-76
2024/01/24 00:08:05;;;;;;;2.50;1.15;;;8.70;99.90;;;9.29;100.00;100193.41;5014857;28;20092;-77
2024/01/24 00:10:31;;;;;;;3.28;1.02;;;8.80;99.90;;;9.35;100.00;100197.09;5026599;28;20041;-76
2024/01/24 00:12:57;;;;;;;3.72;1.30;;;8.80;99.90;;;9.32;100.00;100176.63;5019152;28;20374;-76
2024/01/24 00:15:23;;;;;;;2.65;1.05;;;8.80;99.90;;;9.47;100.00;100183.63;5013788;28;20040;-76
2024/01/24 00:17:48;;;;;;;2.42;1.20;;;8.80;99.90;;;9.41;100.00;100170.91;5019799;28;20057;-76
2024/01/24 00:20:14;;;;;;;2.42;1.20;;;8.90;99.90;;;9.56;100.00;100178.75;5013512;28;20490;-76
2024/01/24 00:22:40;;;;;;;3.30;1.55;;;9.00;99.90;;;9.63;100.00;100183.09;5018801;28;20386;-76
2024/01/24 00:25:06;;;;;;;4.57;1.60;;;9.00;99.90;;;9.81;100.00;100191.53;5017352;28;20049;-76
2024/01/24 00:27:31;;;;;;;4.50;1.90;;;9.20;99.90;;;10.04;100.00;100213.53;5014672;28;20048;-76
2024/01/24 00:29:57;;;;;;;3.17;1.48;;;9.40;99.90;;;10.22;100.00;100188.19;5021675;28;20063;-75
2024/01/24 00:32:23;;;;;;;3.72;1.38;;;9.60;99.90;;;10.32;100.00;100204.03;5022850;28;20037;-76
2024/01/24 00:34:48;;;;;;;2.95;1.30;;;9.70;99.90;;;10.34;100.00;100185.56;5007620;28;20041;-75
2024/01/24 00:37:15;;;;;;;3.30;1.10;;;9.80;99.90;;;10.43;100.00;100171.66;5030250;28;20038;-76
2024/01/24 00:39:40;;;;;;;2.53;1.20;;;9.90;99.90;;;10.51;100.00;100209.53;5008912;28;20051;-75
2024/01/24 00:42:06;;;;;;;3.95;1.20;;;9.90;99.90;;;10.61;100.00;100193.47;5027743;28;20394;-75
2024/01/24 00:44:32;;;;;;;2.10;1.08;;;9.90;99.90;;;10.55;100.00;100248.94;5008054;28;20071;-75
2024/01/24 00:46:58;;;;;;;2.30;1.05;;;10.00;99.90;;;10.65;100.00;100181.03;5012835;28;20069;-76
2024/01/24 00:49:26;;;;;;;2.47;0.98;;;10.00;99.90;;;10.75;100.00;100155.94;5019362;28;20026;-75
2024/01/24 00:51:51;;;;;;;;;;;10.10;99.90;;;10.67;100.00;100147.22;5000048;28;20485;-76
2024/01/24 00:54:17;;;;;;;3.33;1.10;;;10.10;99.90;;;10.70;100.00;100152.22;5009039;28;19960;-75
2024/01/24 00:56:43;;;;;;;3.75;1.17;;;10.10;99.90;;;10.72;100.00;100136.47;5021385;28;20030;-75
2024/01/24 00:59:08;;;;;;;4.90;1.45;;;10.10;99.90;;;10.81;100.00;100121.44;5021609;28;20382;-76
2024/01/24 01:01:34;;;;;;;1.63;0.75;;;10.20;99.90;;;10.81;100.00;100140.53;5022813;28;20041;-75
2024/01/24 01:04:00;;;;;;;2.28;0.80;;;10.20;99.90;;;10.76;100.00;100111.22;5012536;28;20042;-76
2024/01/24 01:06:26;;;;;;;1.23;0.60;;;10.20;99.90;;;10.67;100.00;100131.72;5012165;28;20120;-76
2024/01/24 01:08:52;;;;;;;1.38;0.93;;;10.10;99.90;;;10.72;100.00;100120.09;5020716;28;20065;-76
2024/01/24 01:11:17;;;;;;;2.70;0.85;;;10.10;99.90;;;10.78;100.00;100128.19;5024970;28;20108;-76
2024/01/24 01:13:43;;;;;;;2.70;0.90;;;10.10;99.90;;;10.87;100.00;100122.41;5019723;28;20382;-75
2024/01/24 01:16:09;;;;;;;2.97;0.90;;;;;;;11.02;100.00;100135.66;5018996;28;20037;-75
2024/01/24 01:18:35;;;;;;;4.47;1.55;;;10.30;99.90;;;10.96;100.00;100142.84;5016524;28;20042;-76
2024/01/24 01:21:01;;;;;;;3.30;1.00;;;10.50;99.90;;;10.98;100.00;100120.78;5010090;28;20705;-75
2024/01/24 01:23:26;;;;;;;3.45;0.90;;;10.50;99.90;;;11.14;100.00;100157.50;5030253;28;20503;-75
2024/01/24 01:25:53;;;;;;;3.38;0.73;;;10.60;99.90;;;11.13;100.00;100153.09;5014018;28;20041;-76
2024/01/24 01:28:18;;;;;;;2.78;0.90;;;10.60;99.90;;;11.28;100.00;100128.94;5019495;28;20133;-76
2024/01/24 01:30:44;;;;;;;1.10;0.80;;;10.70;99.90;;;11.40;100.00;100147.22;5017886;28;20117;-75
2024/01/24 01:33:10;;;;;;;1.55;0.80;;;10.80;99.90;;;11.41;100.00;100132.53;5035542;28;20055;-74
2024/01/24 01:35:36;;;;;;;3.45;1.00;;;11.00;99.90;;;11.64;100.00;100137.19;5018471;28;20045;-75
2024/01/24 01:38:02;;;;;;;1.95;0.90;;;11.10;99.90;;;11.67;100.00;100131.25;5012066;28;20220;-76
2024/01/24 01:40:28;;;;;;;2.25;0.80;;;11.10;99.90;;;11.69;100.00;100120.91;5023688;28;20128;-76
2024/01/24 01:42:54;;;;;;;2.20;1.08;;;11.20;99.90;;;11.75;100.00;100160.13;5011800;28;20125;-76
2024/01/24 01:45:20;;;;;;;3.05;0.98;;;11.20;99.90;;;11.75;100.00;100130.88;5038887;28;22191;-74
2024/01/24 01:47:48;;;;;;;5.07;1.20;;;11.20;99.90;;;11.70;100.00;100133.50;5033711;28;20025;-76
2024/01/24 01:50:15;;;;;;;3.40;1.02;;;11.20;99.90;;;11.73;100.00;100132.22;5011843;28;20390;-75
2024/01/24 01:52:43;;;;;;;4.60;1.20;;;11.20;99.90;;;11.71;100.00;100120.69;5012031;28;20173;-75
2024/01/24 01:55:11;;;;;;;2.00;1.10;;;11.20;99.90;;;11.73;100.00;100175.94;5021375;28;20137;-75
2024/01/24 01:57:42;;;;;;;3.50;1.30;;;11.20;99.90;;;11.83;100.00;100135.16;5023413;28;20041;-77
2024/01/24 02:00:10;;;;;;;1.98;1.20;;;11.20;99.90;;;11.82;100.00;100111.63;5019255;28;20042;-75
2024/01/24 02:02:36;;;;;;;4.50;1.30;;;11.20;99.90;;;11.77;100.00;100111.53;5019828;28;20050;-75
2024/01/24 02:05:03;;;;;;;6.28;1.50;;;11.10;99.90;;;11.66;100.00;100108.53;5005707;28;20093;-76
2024/01/24 02:07:29;;;;;;;3.03;1.30;;;11.10;99.90;;;11.58;100.00;100124.47;5013114;28;20474;-76
2024/01/24 02:09:55;;;;;;;3.38;1.30;;;11.10;99.90;;;11.55;100.00;100101.19;5013165;28;20042;-75
2024/01/24 02:12:21;;;;;;;3.28;1.60;;;11.10;99.90;;;11.55;100.00;100101.19;5011517;28;20045;-75
2024/01/24 02:14:47;;;;;;;1.92;1.27;;;11.10;99.90;;;11.68;100.00;100061.88;5020655;28;20489;-75
2024/01/24 02:17:13;;;;;;;5.05;1.55;;;11.10;99.90;;;11.63;100.00;100072.69;5018999;28;20071;-76
2024/01/24 02:19:40;;;;;;;3.03;1.42;;;11.10;99.90;;;11.58;100.00;100059.72;5015066;28;20328;-75
2024/01/24 02:22:05;;;;;;;2.72;1.55;;;11.00;99.90;;;11.58;100.00;100050.72;4995251;28;20163;-75
2024/01/24 02:24:32;;;;;;;2.72;1.35;;;11.00;99.90;;;11.52;100.00;100028.72;5022698;28;20056;-76
2024/01/24 02:26:57;;;;;;;3.13;1.60;;;11.00;99.90;;;11.54;100.00;100036.69;5038037;28;20493;-76
2024/01/24 02:29:23;;;;;;;3.30;1.60;;;11.00;99.90;;;11.59;100.00;100047.72;5023037;28;20037;-75
2024/01/24 02:31:49;;;;;;;3.63;1.58;;;11.00;99.90;;;11.57;100.00;100016.28;5014951;28;20050;-76
2024/01/24 02:34:14;;;;;;;4.00;1.98;;;11.10;99.90;;;11.63;100.00;100037.16;4987111;28;20033;-75
2024/01/24 02:36:40;;;;;;;3.40;1.40;;;11.10;99.90;;;11.60;100.00;100002.13;5015384;28;20083;-76
2024/01/24 02:39:06;;;;;;;3.05;1.40;;;11.10;99.90;;;11.47;100.00;100016.88;5015476;28;20493;-76
2024/01/24 02:41:33;;;;;;;4.82;1.80;;;11.00;99.90;;;11.50;100.00;100000.81;5027174;28;20051;-75
2024/01/24 02:43:59;;;;;;;4.95;1.98;;;11.00;99.90;;;11.40;100.00;99991.56;5026620;28;20052;-77
2024/01/24 02:46:24;;;;;;;3.55;1.90;;;10.90;99.90;;;11.38;100.00;99975.44;5024815;28;20041;-76
2024/01/24 02:48:50;;;;;;;6.65;2.20;;;10.90;99.90;;;11.37;100.00;99965.56;5024872;28;20053;-76
2024/01/24 02:51:28;;;;;;;3.67;1.85;;;10.90;99.90;;;11.47;100.00;99943.94;5031821;28;20045;-77
2024/01/24 02:53:54;;;;;;;4.33;2.00;;;10.90;99.90;;;11.43;100.00;99934.56;5015719;28;20097;-77
2024/01/24 02:56:20;;;;;;;3.33;1.92;;;10.90;99.90;;;11.54;100.00;99930.16;5032311;28;20682;-77
2024/01/24 02:58:46;;;;;;;5.90;2.45;;;10.90;99.90;;;11.47;100.00;99954.06;5010407;28;20141;-77
2024/01/24 03:01:12;;;;;;;5.82;2.17;;;10.90;99.90;;;11.53;100.00;99939.44;5001691;28;20461;-76
2024/01/24 03:03:41;;;;;;;3.95;1.95;;;10.90;99.90;;;11.45;100.00;99946.09;5002323;28;20069;-77
2024/01/24 03:06:08;;;;;;;3.92;1.98;;;10.90;99.90;;;11.45;100.00;99937.88;5023743;28;20087;-77
2024/01/24 03:08:50;;;;;;;4.35;1.65;;;10.90;99.90;;;11.43;100.00;99956.41;5015089;28;20398;-76
2024/01/24 03:11:16;;;;;;;5.68;2.00;;;11.00;99.90;;;11.55;100.00;99940.00;5009568;28;20042;-77
2024/01/24 03:13:42;;;;;;;4.40;1.65;;;11.00;99.90;;;11.54;100.00;99919.22;5018932;28;20584;-77
2024/01/24 03:16:08;;;;;;;4.30;1.90;;;11.00;99.90;;;11.58;100.00;99931.34;5028315;28;20029;-76
2024/01/24 03:18:38;;;;;;;4.57;2.00;;;11.00;99.90;;;11.61;100.00;99930.03;5022163;28;20662;-77
2024/01/24 03:21:09;;;;;;;3.53;1.95;;;11.00;99.90;;;11.65;100.00;99921.09;5018148;28;20083;-76
2024/01/24 03:23:38;;;;;;;7.45;2.28;;;11.00;99.90;;;11.74;100.00;99901.59;5001880;28;20132;-77
2024/01/24 03:26:06;;;;;;;4.05;1.70;;;11.00;99.90;;;11.69;100.00;99920.63;5013641;28;20049;-76
2024/01/24 03:28:32;;;;;;;2.85;1.67;;;11.00;99.90;;;11.70;100.00;99894.97;5019305;28;20090;-76
2024/01/24 03:30:59;;;;;;;5.13;2.22;;;11.00;99.90;;;11.83;100.00;99896.59;5014417;28;20030;-77
2024/01/24 03:33:25;;;;;;;2.80;1.60;;;11.10;99.90;;;11.72;100.00;99888.16;5024558;28;20044;-77
2024/01/24 03:35:51;;;;;;;2.58;1.63;;;11.10;99.90;;;11.89;100.00;99904.63;5015813;28;20037;-77
2024/01/24 03:38:18;;;;;;;2.70;1.60;;;11.10;99.90;;;11.89;100.00;99915.56;5014060;28;20500;-77
2024/01/24 03:40:44;;;;;;;3.47;1.40;;;11.10;99.90;;;11.99;100.00;99898.53;5018703;28;20052;-76
2024/01/24 03:43:13;;;;;;;2.53;1.65;;;11.20;99.90;;;12.02;100.00;99908.19;5023912;28;20060;-76
2024/01/24 03:45:39;;;;;;;3.13;1.42;;;11.30;99.90;;;12.13;100.00;99898.25;5013620;28;20041;-76
2024/01/24 03:48:06;;;;;;;4.60;1.60;;;11.30;99.90;;;12.11;100.00;99884.00;5024926;28;20056;-75
2024/01/24 03:50:33;;;;;;;3.33;1.60;;;11.40;99.90;;;12.29;100.00;99913.84;5024932;28;20116;-76
2024/01/24 03:53:01;;;;;;;2.08;1.40;;;11.50;99.90;;;12.27;100.00;99915.19;5021413;28;20058;-76
2024/01/24 03:55:28;;;;;;;4.10;2.00;;;11.60;99.90;;;12.36;100.00;99908.25;5034012;28;20041;-75
2024/01/24 03:57:54;;;;;;;4.63;2.05;;;11.70;99.90;;;12.52;100.00;99932.06;5013886;28;20470;-76
2024/01/24 04:00:20;;;;;;;2.63;1.75;;;11.90;99.90;;;12.57;100.00;99925.00;5017242;28;20026;-75
2024/01/24 04:02:46;;;;;;;3.72;1.90;;;12.00;99.90;;;12.61;100.00;99910.59;5013383;28;20053;-76
2024/01/24 04:05:11;;;;;;;3.53;1.90;;;12.00;99.90;;;12.63;100.00;99881.06;5019789;28;20037;-76
2024/01/24 04:07:37;;;;;;;3.88;2.10;;;12.00;99.90;;;12.72;100.00;99910.75;5018021;28;20037;-76
2024/01/24 04:10:03;;;;;;;3.95;2.10;;;12.00;99.90;;;12.80;100.00;99908.44;5028413;28;20057;-75
2024/01/24 04:12:30;;;;;;;4.28;2.10;;;;;;;12.92;100.00;99902.84;5026641;28;20448;-76
2024/01/24 04:14:57;;;;;;;5.18;2.20;;;;;;;12.89;100.00;99917.06;5018436;28;20490;-76
2024/01/24 04:17:23;;;;;;;3.58;2.13;;;;;;;12.98;100.00;99913.88;5012936;28;20038;-75
2024/01/24 04:19:49;;;;;;;3.00;1.98;;;;;;;13.07;100.00;99904.16;5017751;28;20053;-75
2024/01/24 04:22:16;;;;;;;3.95;1.75;;;;;;;13.05;100.00;99934.53;5012777;28;20513;-76
2024/01/24 04:24:42;;;;;;;3.17;1.50;;;;;;;13.20;100.00;99936.66;4995716;28;20473;-75
2024/01/24 04:27:08;;;;;;;4.97;1.90;;;;;;;13.36;100.00;99945.94;5013195;28;20156;-76
2024/01/24 04:29:34;;;;;;;2.15;1.40;;;;;;;13.44;100.00;99952.09;5018120;28;20069;-75
2024/01/24 04:32:00;;;;;;;3.35;1.60;;;;;;;13.32;100.00;99941.19;5018799;28;20038;-76
2024/01/24 04:34:27;;;;;;;3.75;1.58;;;;;;;13.09;100.00;99945.81;5024967;28;20105;-77
2024/01/24 04:36:54;;;;;;;1.92;1.33;;;;;;;12.95;100.00;99959.00;5026091;28;20060;-75
2024/01/24 04:39:21;;;;;;;3.92;1.80;;;;;;;12.94;100.00;99955.44;5020996;28;20038;-75
2024/01/24 04:41:47;;;;;;;5.07;1.63;;;;;;;13.05;100.00;99920.84;5019867;28;20385;-76
2024/01/24 04:44:17;;;;;;;3.22;1.50;;;;;;;13.03;100.00;99961.34;5012721;28;20040;-75
2024/01/24 04:46:43;;;;;;;1.88;1.10;;;;;;;13.13;100.00;99948.88;5021841;28;20069;-76
2024/01/24 04:49:09;;;;;;;2.65;1.25;;;;;;;13.20;100.00;99938.56;5018602;28;20029;-75
2024/01/24 04:51:35;;;;;;;2.03;1.40;;;;;;;13.17;100.00;99947.28;5015835;28;20130;-74
2024/01/24 04:54:01;;;;;;;3.90;1.70;;;;;;;13.08;100.00;99931.28;5019138;28;20033;-74
2024/01/24 04:56:28;;;;;;;3.63;1.50;;;;;;;13.02;100.00;99915.88;5016618;28;20124;-75
2024/01/24 04:58:54;;;;;;;2.88;1.40;;;;;;;12.86;100.00;99912.06;5012761;28;20045;-74
2024/01/24 05:01:20;;;;;;;2.22;1.40;;;;;;;13.00;100.00;99937.19;5017824;28;20036;-75
2024/01/24 05:03:46;;;;;;;2.88;1.48;;;;;;;12.99;100.00;99899.09;5012707;28;20549;-76
2024/01/24 05:06:12;;;;;;;2.03;1.30;;;;;;;12.92;100.00;99921.19;5006041;28;20084;-76
2024/01/24 05:08:40;;;;;;;1.60;1.30;;;;;;;12.80;100.00;99968.63;5017956;28;20054;-76
2024/01/24 05:11:06;;;;;;;6.50;1.85;;;;;;;12.49;100.00;100002.84;5010400;28;20139;-79
2024/01/24 05:13:32;;;;;;;9.25;1.80;;;;;;;17.97;100.00;100008.81;5012182;28;20040;-78
2024/01/24 05:15:59;;;;;;;10.68;1.88;;;;;;;16.70;100.00;100022.44;4998965;28;20096;-78
2024/01/24 05:18:25;;;;;;;10.05;1.50;;;;;;;17.99;100.00;100049.94;4999890;28;20088;-78
2024/01/24 05:20:51;;;;;;;6.68;1.42;;;;;;;17.56;100.00;100017.22;5019154;28;20030;-78
2024/01/24 05:23:17;;;;;;;5.10;1.17;;;;;;;17.17;100.00;100018.66;5027395;28;20041;-81
2024/01/24 05:25:43;;;;;;;8.82;1.67;;;12.10;99.90;;;17.81;100.00;100013.56;4999193;28;20141;-78
2024/01/24 05:28:10;;;;;;;8.75;1.33;;;9.80;99.90;;;17.25;100.00;100020.03;5035077;28;20047;-81
2024/01/24 05:30:37;;;;;;;8.00;1.45;;;9.80;99.90;;;17.05;100.00;100026.34;5012680;28;20057;-77
2024/01/24 05:33:03;;;;;;;3.72;1.05;;;10.00;99.90;;;16.20;100.00;100033.88;5021183;28;20066;-78
2024/01/24 05:35:29;;;;;;;6.65;1.10;;;9.90;99.90;;;16.30;100.00;100060.63;5020829;28;20039;-76
2024/01/24 05:37:54;;;;;;;4.30;1.00;;;10.00;99.90;;;17.21;100.00;100051.97;5021739;28;20048;-75
2024/01/24 05:40:20;;;;;;;3.53;1.15;;;10.10;99.90;;;18.43;100.00;100042.84;5016997;28;20045;-77
2024/01/24 05:42:46;;;;;;;6.75;1.20;;;10.10;99.90;;;18.26;100.00;100052.31;5012101;28;20496;-77
2024/01/24 05:45:12;;;;;;;6.93;1.20;;;10.20;99.90;;;20.35;100.00;100044.75;5008425;28;20035;-77
2024/01/24 05:47:38;;;;;;;7.38;1.17;;;10.20;99.90;;;20.69;100.00;100060.34;5015581;28;20052;-77
2024/01/24 05:50:09;;;;;;;3.55;1.35;;;10.30;99.90;;;19.58;100.00;100067.75;5018868;28;20030;-76
2024/01/24 05:52:35;;;;;;;5.78;1.38;;;10.30;99.90;;;19.01;100.00;100063.50;5003951;28;20069;-76
2024/01/24 05:55:00;;;;;;;4.38;1.20;;;10.30;99.90;;;18.87;100.00;100062.50;5027070;28;20430;-76
2024/01/24 05:57:26;;;;;;;5.50;1.13;;;10.40;99.90;;;18.72;100.00;100096.56;5018498;28;20026;-77
2024/01/24 05:59:52;;;;;;;3.53;1.05;;;10.40;99.90;;;18.95;100.00;100064.63;5007062;28;20385;-76
2024/01/24 06:02:18;;;;;;;5.43;1.13;;;10.40;99.90;;;18.82;100.00;100055.88;5015670;28;20092;-77
2024/01/24 06:04:44;;;;;;;3.05;0.80;;;10.40;99.90;;;18.49;100.00;100057.47;5015975;28;20034;-76
2024/01/24 06:07:10;;;;;;;5.95;1.15;;;10.50;99.90;;;19.63;100.00;100079.59;5016433;28;20041;-76
2024/01/24 06:09:36;;;;;;;8.48;1.20;;;10.60;99.90;;;20.61;97.62;100087.88;5015890;28;20042;-77
2024/01/24 06:12:01;;;;;;;4.65;1.50;;;10.60;99.90;;;19.12;100.00;100089.13;5015685;28;20036;-77
2024/01/24 06:14:27;;;;;;;8.48;1.20;;;10.50;99.90;;;19.08;100.00;100080.59;5025593;28;20384;-76
2024/01/24 06:16:53;;;;;;;3.83;0.90;;;10.40;99.90;;;19.60;100.00;100073.81;5019748;28;20094;-77
2024/01/24 06:19:18;;;;;;;5.63;1.20;;;10.40;99.90;;;19.54;100.00;100071.09;5023005;28;20041;-77
2024/01/24 06:21:44;;;;;;;4.25;1.13;;;10.40;99.90;;;19.15;98.86;100054.56;5021828;28;20042;-77
2024/01/24 06:24:10;;;;;;;8.32;1.77;;;10.40;99.90;;;19.37;100.00;100070.69;5022092;28;20041;-77
2024/01/24 06:26:37;;;;;;;7.88;1.20;;;10.50;99.90;;;19.19;95.70;100058.41;4996613;28;20041;-76
2024/01/24 06:29:03;;;;;;;8.55;1.13;;;10.50;99.90;;;18.97;100.00;100109.38;5015479;28;20041;-78
2024/01/24 06:31:29;;;;;;;9.45;1.55;;;10.50;99.90;;;19.50;100.00;100086.63;5025701;28;20049;-80
2024/01/24 06:33:55;;;;;;;8.88;1.20;;;10.40;99.90;;;20.05;100.00;100107.69;5021460;28;20042;-82
2024/01/24 06:36:20;;;;;;;13.60;1.75;;;10.40;99.90;;;19.26;100.00;100103.13;5022077;28;20385;-76
2024/01/24 06:38:46;;;;;;;11.10;1.70;;;10.30;99.90;;;19.03;100.00;100122.09;5020198;28;20045;-77
2024/01/24 06:41:13;;;;;;;9.15;1.48;;;10.20;99.90;;;18.81;100.00;100139.88;5018877;28;20061;-77
2024/01/24 06:43:40;;;;;;;8.20;1.48;;;10.10;99.90;;;18.06;100.00;100165.56;5015130;28;20034;-77
2024/01/24 06:46:06;;;;;;;10.52;2.42;;;10.10;99.90;;;16.49;100.00;100092.06;5013388;28;20662;-78
2024/01/24 06:48:31;;;;;;;7.82;1.40;;;10.10;99.90;;;18.26;100.00;100126.03;5019744;28;20521;-77
2024/01/24 06:50:58;;;;;;;11.77;2.20;;;10.00;99.90;;;17.22;100.00;100108.75;5045539;28;20037;-79
2024/01/24 06:53:24;;;;;;;10.27;1.50;;;9.90;99.90;;;17.15;99.90;100097.19;5034319;28;20026;-81
2024/01/24 06:55:50;;;;;;;13.07;2.22;;;9.80;99.90;;;17.73;96.77;100096.06;5015124;28;20049;-79
2024/01/24 06:58:17;;;;;;;13.10;1.95;;;9.80;99.90;;;17.06;98.78;100117.03;5014794;28;20034;-79
2024/01/24 07:00:43;;;;;;;13.77;2.08;;;9.80;99.90;;;17.52;99.16;100130.00;5025740;28;20068;-78
2024/01/24 07:03:09;;;;;;;10.82;2.15;;;9.90;99.90;;;17.39;99.80;100142.41;4983716;28;20046;-79
2024/01/24 07:05:35;;;;;;;15.20;2.03;;;9.90;99.90;;;17.45;96.57;100131.38;4983602;28;20529;-77
2024/01/24 07:08:00;;;;;;;14.68;2.30;;;10.00;99.90;;;17.57;94.94;100131.09;4981453;28;20066;-80
2024/01/24 07:10:26;;;;;;;12.13;1.70;;;10.00;99.90;;;17.07;95.88;100146.22;4981341;28;20093;-79
2024/01/24 07:12:52;;;;;;;14.43;2.30;;;10.00;99.90;;;17.22;100.00;100166.63;4975893;28;20085;-79
2024/01/24 07:15:18;;;;;;;11.65;2.03;;;10.00;99.90;;;16.04;100.00;100162.28;5005546;28;20031;-78
2024/01/24 07:17:45;;;;;;;7.60;1.90;;;9.90;99.90;;;16.17;100.00;100174.75;4982171;28;20053;-78
2024/01/24 07:20:13;;;;;;;15.05;2.83;;;9.80;99.90;;;15.84;100.00;100183.03;4979448;28;20561;-77
2024/01/24 07:22:38;;;;;;;14.88;2.47;;;9.80;99.90;;;15.67;100.00;100188.66;4987063;28;20121;-78
2024/01/24 07:25:07;;;;;;;15.57;2.88;;;9.70;99.90;;;16.28;100.00;100184.72;4987955;28;20042;-78
2024/01/24 07:27:34;;;;;;;11.98;2.40;;;9.70;99.90;;;16.21;100.00;100170.38;5006451;28;20050;-79
2024/01/24 07:30:00;;;;;;;16.85;3.05;;;9.70;99.90;;;15.06;100.00;100179.56;4983752;28;20030;-77
2024/01/24 07:32:27;;;;;;;16.08;2.63;;;9.90;99.90;;;16.46;94.46;100201.88;4981801;28;20037;-78
2024/01/24 07:34:53;;;;;;;12.50;2.78;;;10.00;99.90;;;16.21;93.38;100201.50;5006700;28;20026;-79
2024/01/24 07:37:18;;;;;;;13.75;2.80;;;10.10;99.90;;;16.40;92.23;100190.00;4982204;28;20030;-76
2024/01/24 07:39:44;;;;;;;17.35;3.20;;;10.10;99.90;;;16.21;91.99;100192.38;4980841;28;20395;-82
2024/01/24 07:42:10;;;;;;;16.15;2.63;;;10.00;99.90;;;16.25;93.89;100194.34;4985772;28;20038;-82
2024/01/24 07:44:36;;;;;;;20.67;2.97;;;10.00;99.90;;;16.07;92.44;100198.38;4975035;28;20100;-77
2024/01/24 07:47:03;;;;;;;20.70;3.15;;;10.00;99.90;;;16.44;91.03;100199.38;4977211;28;20048;-79
2024/01/24 07:49:29;;;;;;;18.70;3.37;;;10.00;99.90;;;16.70;90.78;100229.81;4982523;28;20486;-80
2024/01/24 07:51:55;;;;;;;13.35;2.22;;;10.00;99.90;;;15.92;93.55;100217.50;4986543;28;20129;-79
2024/01/24 07:54:21;;;;;;;16.80;2.95;;;10.10;99.90;;;16.74;88.73;100241.13;4977729;28;20065;-79
2024/01/24 07:56:47;;;;;;;20.38;3.65;;;10.20;99.90;;;16.88;89.70;100245.06;4977312;28;20043;-81
2024/01/24 07:59:16;;;;;;;19.13;3.83;;;10.20;99.90;;;16.73;88.60;100228.47;4982193;28;20042;-79
2024/01/24 08:01:46;;;;;;;22.08;3.40;;;10.10;99.90;;;16.55;90.21;100258.09;4988070;28;20037;-78
2024/01/24 08:04:13;;;;;;;22.02;3.50;;;10.10;99.90;;;15.93;98.21;100277.78;5019698;28;20129;-79
2024/01/24 08:06:39;;;;;;;17.50;3.50;;;10.10;99.90;;;15.95;99.56;100327.00;5013268;28;20053;-79
2024/01/24 08:09:04;;;;;;;18.80;3.83;;;9.90;99.90;;;16.34;97.78;100276.41;5013866;28;20535;-79
2024/01/24 08:11:30;;;;;;;20.65;3.05;;;9.80;99.90;;;16.33;96.02;100292.13;5040466;28;20041;-78
2024/01/24 08:13:56;;;;;;;20.33;4.13;;;9.80;99.90;;;15.91;94.58;100259.84;4999977;28;20378;-82
2024/01/24 08:16:21;;;;;;;24.70;3.80;;;9.70;99.90;;;16.34;93.15;100288.28;5035461;28;20085;-80
2024/01/24 08:18:48;;;;;;;20.40;3.38;;;9.70;99.90;;;16.05;90.63;100263.00;5024513;28;20456;-81
2024/01/24 08:21:15;;;;;;;21.17;4.13;;;9.80;99.90;;;15.76;89.28;100258.59;5019405;28;20125;-79
2024/01/24 08:23:40;;;;;;;20.63;3.60;;;9.80;99.90;;;16.51;83.98;100265.22;5014930;28;20121;-78
2024/01/24 08:26:09;;;;;;;22.30;3.33;;;9.90;99.90;;;16.62;78.52;100238.59;5020355;28;20121;-80
2024/01/24 08:28:35;;;;;;;21.13;3.28;;;10.10;99.90;;;16.21;78.50;100278.53;5033079;28;20033;-81
2024/01/24 08:31:01;;;;;;;25.75;3.80;;;10.20;99.90;;;15.57;81.02;100249.88;4996639;28;20087;-79
2024/01/24 08:33:27;;;;;;;21.00;3.63;;;10.40;99.90;;;16.17;78.63;100251.81;5029061;28;20047;-79
2024/01/24 08:35:52;;;;;;;20.02;3.20;;;10.30;99.90;;;15.85;77.66;100256.19;5009777;28;20501;-79
2024/01/24 08:38:18;;;;;;;25.48;4.03;;;10.50;99.90;;;15.86;76.21;100274.34;5014396;28;20034;-79
2024/01/24 08:40:44;;;;;;;21.23;4.20;;;10.50;99.90;;;16.03;72.68;100273.44;5023384;28;20054;-81
2024/01/24 08:43:09;;;;;;;21.70;3.58;;;10.60;99.90;;;16.58;71.64;100251.25;5002999;28;20038;-82
2024/01/24 08:45:35;;;;;;;17.20;3.53;;;10.60;99.90;;;16.52;71.55;100255.88;4995750;28;20084;-79
2024/01/24 08:48:01;;;;;;;20.00;3.33;;;10.60;99.90;;;16.11;74.21;100300.47;5020227;28;20033;-81
2024/01/24 08:50:26;;;;;;;21.92;3.83;;;10.60;99.90;;;16.18;70.51;100287.34;5023399;28;20038;-79
2024/01/24 08:52:52;;;;;;;14.90;3.42;;;10.70;99.90;;;16.38;70.27;100270.13;5016528;28;20029;-82
2024/01/24 08:55:18;;;;;;;20.38;3.97;;;10.80;99.90;;;16.38;70.03;100263.78;5018513;28;20103;-81
2024/01/24 08:57:44;;;;;;;19.98;3.53;;;10.80;99.90;;;16.93;68.46;100310.34;5035686;28;20436;-78
2024/01/24 09:00:13;;;;;;;22.85;3.75;;;10.80;99.90;;;16.51;67.24;100276.25;5028447;28;20042;-81
2024/01/24 09:02:39;;;;;;;18.08;4.20;;;10.80;99.90;;;16.51;67.28;100326.66;5016004;28;20099;-81
2024/01/24 09:05:05;;;;;;;18.30;3.38;;;10.80;99.90;;;17.04;65.71;100312.13;5023898;28;20037;-79
2024/01/24 09:07:31;;;;;;;16.17;3.17;;;10.90;99.90;;;17.14;66.14;100293.97;5006103;28;20040;-80
2024/01/24 09:09:57;;;;;;;16.42;3.45;;;10.80;99.90;;;15.74;65.02;100262.72;5031297;28;20121;-79
2024/01/24 09:12:23;;;;;;;22.42;4.47;;;10.80;99.90;;;14.21;79.84;100348.06;5017815;28;20497;-82
2024/01/24 09:14:49;;;;;;;18.65;3.40;;;10.90;99.90;;;13.84;84.25;100375.94;5028034;28;20033;-81
2024/01/24 09:17:17;;;;;;;22.80;4.60;;;10.90;99.90;;;13.75;84.52;100345.31;5001770;28;20050;-79
2024/01/24 09:19:44;;;;;;;;;;;10.90;99.90;;;13.85;84.57;100377.59;5015232;28;20042;-80
2024/01/24 09:22:10;;;;;;;20.88;3.00;;;10.90;99.90;;;13.80;84.27;100352.81;4999789;28;19940;-82
2024/01/24 09:24:37;;;;;;;20.88;3.83;;;10.80;99.90;;;14.04;84.96;100338.97;5016355;28;20101;-82
2024/01/24 09:27:05;;;;;;;22.42;3.50;;;10.80;99.90;;;14.98;78.18;100349.50;5031817;28;20180;-79
2024/01/24 09:29:31;;;;;;;19.95;3.00;;;10.90;99.90;;;16.19;67.22;100311.00;5032518;28;20069;-80
2024/01/24 09:31:57;;;;;;;20.83;3.50;;;11.00;99.90;;;16.20;67.58;100303.56;5012669;28;20103;-80
2024/01/24 09:34:26;;;;;;;21.25;3.50;;;11.00;99.90;;;16.24;66.55;100311.03;5012646;28;20042;-79
2024/01/24 09:36:55;;;;;;;19.45;3.35;;;10.90;99.90;;;16.46;64.72;100323.88;5012934;28;20088;-79
2024/01/24 09:39:25;;;;;;;17.27;2.85;;;10.80;99.90;;;16.42;65.65;100310.88;5031989;28;20034;-79
2024/01/24 09:41:51;;;;;;;18.27;3.60;;;10.90;99.90;;;16.68;68.33;100350.44;5016678;28;20120;-80
2024/01/24 09:44:17;;;;;;;21.70;3.63;;;10.80;99.90;;;16.75;65.13;100326.25;5012156;28;20038;-79
2024/01/24 09:46:43;;;;;;;19.08;4.15;;;10.70;99.90;;;16.44;68.34;100361.00;5020818;28;20057;-79
2024/01/24 09:49:14;;;;;;;19.90;3.60;;;10.60;99.90;;;16.44;70.41;100348.06;5038589;28;20026;-82
2024/01/24 09:51:42;;;;;;;15.43;3.00;;;10.40;99.90;;;15.52;73.33;100346.06;5023403;28;20120;-80
2024/01/24 09:54:08;;;;;;;25.42;3.88;;;10.20;99.90;;;15.66;78.33;100393.25;5014841;28;20037;-79
2024/01/24 09:56:38;;;;;;;15.40;2.97;;;10.20;99.90;;;15.46;76.95;100389.16;5015220;28;20034;-81
2024/01/24 09:59:07;;;;;;;22.50;3.30;;;10.20;99.90;;;15.18;81.02;100390.16;5012247;28;20045;-79
2024/01/24 10:01:39;;;;;;;20.30;3.58;;;10.20;99.90;;;15.56;80.04;100387.63;5025811;28;20057;-79
2024/01/24 10:04:06;;;;;;;15.38;3.10;;;10.10;99.90;;;15.04;82.02;100397.94;5024824;28;20125;-79
2024/01/24 10:06:33;;;;;;;24.60;4.40;;;10.20;99.90;;;14.99;86.74;100428.91;5018859;28;20042;-79
2024/01/24 10:08:59;;;;;;;19.88;3.38;;;10.10;99.90;;;14.92;90.91;100431.00;5034293;28;20485;-78
2024/01/24 10:11:26;;;;;;;19.25;3.80;;;10.00;99.90;;;14.65;93.12;100428.91;5019893;28;20045;-82
2024/01/24 10:13:57;;;;;;;22.10;3.70;;;10.00;99.90;;;14.87;90.23;100428.19;4995002;28;20046;-81